Tropical Cyclones
[Index]
Main Index Home Page Stock Weather Photos Extreme Storms Discussion Storm News and Storm Chasing Reports Tropical Cyclones / Hurricanes / Typhoons Weather Data and Links Wild Fires / Bushfires Weather Observation Techniques Weather Picture Catalogue Tornado Pictures and Reports Stock Video Footage and DVDs for sale
Season 1966-1967 Tropical Cyclone 196721 Track Map
Season 1966-1967 Summaries: [BoM-AU] [JTWC-AU] [JTWC-SIO] [JTWC-SPAC] [JTWC-SH]
<<- Previous TC | JTWC 1966-1967 Season | Next TC ->>

click for intensity scale information  Lat/long Grid: Show Hide

 Date Labels: Show Hide

Joint Typhoon Warning Centre Cyclone Data

Name: 196721
Number: 636 / 6721

28 Feb 1967 18:00 UTC to 08 Mar 1967 12:00 UTC

    date/time    lat    long     hPa   cat  kts
1967-02-28 18   21.7   158.6            1     45          
1967-03-01 00   21.7   158.6            1     50          
1967-03-01 06   21.9   158.7            1     50          
1967-03-01 12   22.2   158.9                  35          
1967-03-01 18   22.5   159.1                  30          
1967-03-02 00   22.8   159.4                  35          
1967-03-02 06   23.1   159.6            1     40          
1967-03-02 12   23.4   159.8            1     50          
1967-03-02 18   23.7   159.9            2     55          
1967-03-03 00   24.1   160.0            1     50          
1967-03-03 06   24.7   160.1            1     45          
1967-03-03 12   25.2   159.9            1     40          
1967-03-03 18   25.8   159.5            1     40          
1967-03-04 00   26.3   159.0            1     50          
1967-03-04 06   27.0   158.4            2     60          
1967-03-04 12   27.8   158.1            2     65          
1967-03-04 18   28.7   158.2            1     45          
1967-03-05 00   29.7   158.5            2     55          
1967-03-05 06   30.8   159.0                  35          
1967-03-05 12   31.9   159.3                  30          
1967-03-05 18   33.1   159.7                  30          
1967-03-06 00   34.4   160.1                  30          
1967-03-06 06   35.6   160.6                  30          
1967-03-06 12   36.9   161.8                  25          
1967-03-06 18   38.1   162.9                  25          
1967-03-07 00   38.4   163.7                  25          
1967-03-07 06   38.4   164.2                  25          
1967-03-07 12   38.6   164.4                  20          
1967-03-07 18   38.8   164.8                  20          
1967-03-08 00   39.2   165.2                  20          
1967-03-08 06   39.7   165.7                  20          
1967-03-08 12   40.9   166.0                  20          
Winds are 1-min average.

Tropical cyclone tracks developed by Michael Bath using data from the Joint Typhoon Warning Centre Best Tracks and Google Maps.


[Australian Severe Weather index] [Copyright Notice] [Email Contacts] [Search This Site] [Privacy Policy]
Document: tropical_cyclone_196721.htm Updated: 18 September 2016